Taos, NM

4:46 AM MDT on April 26, 2015 (GMT -0600)
Canon | | Change Station
CLOSE
Current Station
Personal Weather Station
Location: Taos, NM
Elevation: 7001 ft
Nearby Weather Stations

Elev 7001 ft 36.39 °N, 105.56 °W | Updated 12 minutes ago

Overcast
Overcast
40.1 °F
Feels Like 40 °F
N
2.7
Wind Variable Wind from SSE

Today
High -- | Low -- °F
--% Chance of Precip.
Yesterday
High -- | Low -- °F
Precip. -- in
6:15 AM 7:45 PM
First Quarter, 54% visible
Pressure 29.82 in
Visibility 10.0 miles
Clouds Few 3800 ft
Mostly Cloudy 4800 ft
Overcast 11000 ft
Windchill 40 °F
Dew Point 32 °F
Humidity 72%
Rainfall 0.00 in
Snow Depth Not available.
UV 0 out of 12
Pollen 10.60 out of 12
Air Quality Not available.
Flu Activity Local Activity
METAR KSKX 261035Z 24005KT 10SM FEW038 BKN048 OVC110 06/M03 A2982 RMK AO1

More Conditions Fewer Conditions

Pressure 29.82 in
Visibility 10.0 miles
Clouds Few 3800 ft
Mostly Cloudy 4800 ft
Overcast 11000 ft
Windchill 40 °F
Dew Point 32 °F
Humidity 72%
Rainfall 0.00 in
Snow Depth Not available.
UV 0 out of 12
Pollen 10.60 out of 12
Air Quality Not available.
Flu Activity Local Activity
METAR KSKX 261035Z 24005KT 10SM FEW038 BKN048 OVC110 06/M03 A2982 RMK AO1

More Conditions Fewer Conditions

The full scope of the disaster following a powerful 7.8-magnitude earthquake in Nepal may not come into view for days, but global charities are already sending emergency aid. Click to see how you can help.

10-Day Weather Forecast

Almanac

Astronomy

Apr. 26, 2015 Rise Set
Actual Time
Civil Twilight
Nautical Twilight
Astronomical Twilight
Moon
Length of Visible Light
Length of Day
Tomorrow will be .
, % of the Moon is Illuminated

Today's Extremes

State Highs State Lows

Community

WunderPhotos

Upload Photos

1,816,962 photos uploaded!

WunderBlogs® & News

Nearby

Air Quality

  Air Quality AQ Index Pollutant
Not available.

Snow Depth

Station Depth Elevation

Earthquake Activity

City Distance Mag. Time & Date
Minimum magnitude displayed is 2.5.

Coastal Water Temperatures

Place Temperature

Stations

Nearby Weather Stations

Station Location Temp. Windchill Dew Point Humidity Wind Precip. Elev Updated Type